ADDS TAF Board (Experimental) INFO Settings
IDs: Format: Expanded Condensed

KIAD - Washington/Dulles In, VA, US

Issued at 2100 UTC 24 Sep 2016
Updated at 2237 UTC 24 Sep 2016
Time2152Z 24/23Z 25/00Z 25/01Z 25/02Z 25/03Z 25/04Z 25/05Z 25/06Z 25/07Z 25/08Z 25/09Z 25/10Z 25/11Z
Type OBS PRVL PRVL PRVL PRVL PRVL PRVL PRVL PRVL PRVL PRVL PRVL PRVL PRVL
VIS 10 >6 >6 >6 >6 >6 >6 >6 >6 >6 >6 >6 >6 >6
CIG 55 45 45 45 45 45 45 -- -- -- -- -- -- --
Cover BKN BKN BKN BKN BKN BKN BKN SCT SCT SCT SCT SCT SCT SCT
FltCat VFR VFR VFR VFR VFR VFR VFR VFR VFR VFR VFR VFR VFR VFR
WX -- -- -- -- -- -- -- -- -- -- -- -- -- --
WDir 70 60 40 40 40 40 40 20 20 20 20 20 20 20
WSpd 7 6 5 5 5 5 5 4 4 4 4 4 4 4
WGst -- -- -- -- -- -- -- -- -- -- -- -- -- --
R01/19
XWnd -7 -5 -3 -3 -3 -3 -3 -1 -1 -1 -1 -1 -1 -1
HWnd 3 3 4 4 4 4 4 4 4 4 4 4 4 4
R12/30
XWnd 5 5 5 5 5 5 5 4 4 4 4 4 4 4
HWnd 5 4 2 2 2 2 2 -0 -0 -0 -0 -0 -0 -0

Raw TAF
KIAD 242100Z 2421/2524 06006KT P6SM SCT028 BKN045
  FM250000 04005KT P6SM BKN045
  FM250500 02004KT P6SM SCT080
  FM252300 11004KT P6SM FEW250


Raw METAR
KIAD 242152Z 07007KT 10SM FEW028 BKN055 22/16 A3008 RMK AO2 SLP185 T02170156
KIAD 242052Z 07009KT 10SM SCT028 BKN048 23/16 A3007 RMK AO2 SLP182 T02280161 58006
KIAD 241952Z 06004KT 10SM SCT030 BKN044 23/16 A3008 RMK AO2 SLP183 T02330161
KIAD 241943Z 05007KT 10SM BKN030 BKN042 23/16 A3008 RMK AO2 T02280161

METAR Board
Radar Display
Forecast Discussion

TAF Board Legend

Potential Impact
Threat None Slight Moderate High
Visibility (sm) ≥5.1 5.1>X≥3 3>X≥1 <1
Ceiling (100 ft) ≥30.1 30.1>X≥10 10>X≥5 <5
Wind Speed (kt) <10 10≤X<20 20≤X<30 ≥30
Wind Gust (kt) <15 15≤X<25 25≤X<35 ≥35
Weather No Wx Reported VCTS,-TS,-FZRA,SN TS,FZRA +TS,+FZRA,+SN